KSEA

Seattle-Tacoma International Airport

Seattle, Washington, USA
METAR KSEA 141153Z 19004KT 10SM BKN170 07/03 A2974 RMK AO2 SLP078 70023 T00670033 10100 20067 58027
Observed Flight Rules
Dec-14 @ 11:53 UTC (27 minutes ago) Visual Flight Rules
Wind Visibility Clouds
190° at 4 knots 10 miles
  • Broken at 17,000' AGL
Temperatures Readings
Current 7°C / 45°F
Dewpoint 3°C / 37°F
Humidity 76%
Altimeter 29.74" Hg
Pressure 1007.8 hPa
Elevation 136
METAR KSEA 141153Z 19004KT 10SM BKN170 07/03 A2974 RMK AO2 SLP078 70023 T00670033 10100 20067 58027
Observed Flight Rules
Dec-14 @ 11:53 UTC
(27 minutes ago)
VFR
Wind Visibility
190° at 4 knots 10 miles
Clouds
  • Broken at 17,000' AGL
Temperature Dewpoint
7°C / 45°F 3°C / 37°F
Humidity Altimeter Pressure
76% 29.74" Hg 1007.8 hPa